createdAt,value
2018-12-25T00:01:55.952Z,98255.55
2018-12-25T00:04:26.926Z,98254.33
2018-12-25T00:06:57.893Z,98258.54
2018-12-25T00:09:28.974Z,98269.16
2018-12-25T00:12:00.274Z,98272.45
2018-12-25T00:14:31.874Z,98266.23
2018-12-25T00:17:02.832Z,98273.45
2018-12-25T00:19:33.873Z,98274.89
2018-12-25T00:22:04.907Z,98281.84
2018-12-25T00:24:36.953Z,98283.60
2018-12-25T00:27:07.907Z,98276.41
2018-12-25T00:29:39.470Z,98283.39
2018-12-25T00:32:10.737Z,98281.84
2018-12-25T00:34:41.957Z,98285.77
2018-12-25T00:37:13.275Z,98287.13
2018-12-25T00:39:44.514Z,98290.62
2018-12-25T00:42:15.594Z,98292.63
2018-12-25T00:44:46.561Z,98295.69
2018-12-25T00:47:17.528Z,98295.88
2018-12-25T00:49:48.741Z,98301.66
2018-12-25T00:52:21.194Z,98302.58
2018-12-25T00:54:52.820Z,98314.25
2018-12-25T00:57:24.123Z,98317.04
2018-12-25T00:59:56.957Z,98323.67
2018-12-25T01:02:28.219Z,98326.13
2018-12-25T01:04:59.184Z,98331.44
2018-12-25T01:07:30.387Z,98330.77
2018-12-25T01:10:01.457Z,98330.38
2018-12-25T01:12:33.675Z,98328.64
2018-12-25T01:15:04.803Z,98319.57
2018-12-25T01:17:35.750Z,98317.80
2018-12-25T01:20:06.863Z,98310.48
2018-12-25T01:22:38.893Z,98306.94
2018-12-25T01:25:09.957Z,98303.45
2018-12-25T01:27:41.578Z,98292.41
2018-12-25T01:30:12.543Z,98285.42
2018-12-25T01:32:43.755Z,98289.14
2018-12-25T01:35:14.806Z,98290.16
2018-12-25T01:37:45.833Z,98292.61
2018-12-25T01:40:16.802Z,98299.75
2018-12-25T01:42:47.768Z,98302.77
2018-12-25T01:45:19.046Z,98301.14
2018-12-25T01:47:50.102Z,98303.47
2018-12-25T01:50:21.461Z,98301.46
2018-12-25T01:52:52.603Z,98297.05
2018-12-25T01:55:23.858Z,98293.05
2018-12-25T01:57:54.811Z,98291.09
2018-12-25T02:00:25.778Z,98288.36
2018-12-25T02:02:57.972Z,98288.08
2018-12-25T02:05:29.027Z,98287.33
2018-12-25T02:07:59.992Z,98299.13
2018-12-25T02:10:30.943Z,98296.30
2018-12-25T02:13:03.140Z,98302.79
2018-12-25T02:15:35.074Z,98305.54
2018-12-25T02:18:06.041Z,98319.38
2018-12-25T02:20:37.004Z,98327.44
2018-12-25T02:23:08.235Z,98326.50
2018-12-25T02:25:39.518Z,98329.73
2018-12-25T02:28:10.474Z,98329.02
2018-12-25T02:30:42.129Z,98335.06
2018-12-25T02:33:13.077Z,98331.83
2018-12-25T02:35:44.033Z,98323.33
2018-12-25T02:38:15.049Z,98314.07
2018-12-25T02:40:46.009Z,98307.78
2018-12-25T02:43:16.992Z,98291.84
2018-12-25T02:45:47.962Z,98292.13
2018-12-25T02:48:22.172Z,98284.88
2018-12-25T02:50:53.427Z,98282.89
2018-12-25T02:53:24.371Z,98281.27
2018-12-25T02:55:55.415Z,98274.71
2018-12-25T02:58:26.379Z,98278.84
2018-12-25T03:00:57.347Z,98278.36
2018-12-25T03:03:28.641Z,98276.50
2018-12-25T03:05:59.615Z,98272.33
2018-12-25T03:08:30.632Z,98270.11
2018-12-25T03:11:01.594Z,98268.55
2018-12-25T03:13:33.526Z,98272.31
2018-12-25T03:16:04.566Z,98278.12
2018-12-25T03:18:35.737Z,98281.62
2018-12-25T03:21:06.941Z,98273.11
2018-12-25T03:23:38.841Z,98274.53
2018-12-25T03:26:09.811Z,98263.09
2018-12-25T03:28:40.961Z,98272.08
2018-12-25T03:31:12.140Z,98270.51
2018-12-25T03:33:43.102Z,98266.33
2018-12-25T03:36:14.092Z,98275.31
2018-12-25T03:38:45.385Z,98276.17
2018-12-25T03:41:16.364Z,98283.06
2018-12-25T03:43:47.559Z,98284.14
2018-12-25T03:46:18.541Z,98289.56
2018-12-25T03:48:49.488Z,98290.55
2018-12-25T03:51:20.543Z,98288.63
2018-12-25T03:53:52.428Z,98283.31
2018-12-25T03:56:23.493Z,98275.49
2018-12-25T03:58:54.495Z,98277.77
2018-12-25T04:01:25.744Z,98278.34
2018-12-25T04:03:56.993Z,98275.72
2018-12-25T04:06:28.754Z,98273.45
2018-12-25T04:09:00.045Z,98276.91
2018-12-25T04:11:31.006Z,98282.31
2018-12-25T04:14:02.002Z,98277.67
2018-12-25T04:16:33.022Z,98276.99
2018-12-25T04:19:04.215Z,98273.23
2018-12-25T04:21:35.946Z,98274.30
2018-12-25T04:24:06.870Z,98276.59
2018-12-25T04:26:38.566Z,98278.34
2018-12-25T04:29:09.539Z,98276.56
2018-12-25T04:31:40.735Z,98272.32
2018-12-25T04:34:11.696Z,98272.78
2018-12-25T04:36:42.655Z,98274.33
2018-12-25T04:39:13.623Z,98275.18
2018-12-25T04:41:44.576Z,98267.48
2018-12-25T04:44:15.541Z,98272.34
2018-12-25T04:46:46.496Z,98269.64
2018-12-25T04:49:17.480Z,98274.27
2018-12-25T04:51:48.517Z,98275.58
2018-12-25T04:54:20.191Z,98274.84
2018-12-25T04:56:51.201Z,98274.40
2018-12-25T04:59:22.164Z,98279.72
2018-12-25T05:01:53.369Z,98274.41
2018-12-25T05:04:24.348Z,98276.55
2018-12-25T05:06:55.301Z,98286.22
2018-12-25T05:09:26.522Z,98287.86
2018-12-25T05:11:57.724Z,98289.28
2018-12-25T05:14:28.687Z,98286.22
2018-12-25T05:16:59.643Z,98282.20
2018-12-25T05:19:30.676Z,98279.37
2018-12-25T05:22:01.711Z,98290.23
2018-12-25T05:24:32.919Z,98292.26
2018-12-25T05:27:03.941Z,98297.58
2018-12-25T05:29:34.898Z,98296.77
2018-12-25T05:32:05.928Z,98301.13
2018-12-25T05:34:36.883Z,98301.36
2018-12-25T05:37:08.201Z,98303.47
2018-12-25T05:39:39.159Z,98311.15
2018-12-25T05:42:10.468Z,98313.41
2018-12-25T05:44:43.401Z,98310.69
2018-12-25T05:47:14.482Z,98313.86
2018-12-25T05:49:45.744Z,98320.97
2018-12-25T05:52:16.703Z,98320.25
2018-12-25T05:54:47.693Z,98318.02
2018-12-25T05:57:18.654Z,98307.86
2018-12-25T05:59:49.635Z,98312.56
2018-12-25T06:02:20.886Z,98319.91
2018-12-25T06:04:52.228Z,98318.14
2018-12-25T06:07:23.185Z,98322.39
2018-12-25T06:09:54.789Z,98322.05
2018-12-25T06:12:26.049Z,98317.30
2018-12-25T06:14:57.653Z,98314.13
2018-12-25T06:17:28.609Z,98306.56
2018-12-25T06:19:59.669Z,98310.45
2018-12-25T06:22:31.196Z,98311.41
2018-12-25T06:25:02.172Z,98317.19
2018-12-25T06:27:33.123Z,98318.47
2018-12-25T06:30:04.237Z,98326.39
2018-12-25T06:32:35.211Z,98318.83
2018-12-25T06:35:06.334Z,98320.97
2018-12-25T06:37:37.625Z,98322.14
2018-12-25T06:40:08.925Z,98318.37
2018-12-25T06:42:40.630Z,98314.59
2018-12-25T06:45:11.597Z,98316.61
2018-12-25T06:47:42.797Z,98317.42
2018-12-25T06:50:14.251Z,98318.48
2018-12-25T06:52:45.298Z,98323.69
2018-12-25T06:55:16.602Z,98312.45
2018-12-25T06:57:47.839Z,98313.52
2018-12-25T07:00:18.840Z,98311.61
2018-12-25T07:02:49.790Z,98306.91
2018-12-25T07:05:21.805Z,98304.53
2018-12-25T07:07:53.148Z,98307.25
2018-12-25T07:10:24.406Z,98296.62
2018-12-25T07:12:55.355Z,98304.98
2018-12-25T07:15:33.007Z,98300.75
2018-12-25T07:17:59.199Z,98303.69
2018-12-25T07:20:30.431Z,98308.31
2018-12-25T07:23:01.377Z,98297.34
2018-12-25T07:25:32.619Z,98301.24
2018-12-25T07:28:03.612Z,98301.13
2018-12-25T07:30:34.956Z,98302.66
2018-12-25T07:33:05.968Z,98297.57
2018-12-25T07:35:37.195Z,98297.45
2018-12-25T07:38:08.812Z,98298.27
2018-12-25T07:40:41.049Z,98293.06
2018-12-25T07:43:12.441Z,98296.73
2018-12-25T07:45:43.400Z,98292.61
2018-12-25T07:48:14.622Z,98298.52
2018-12-25T07:50:46.180Z,98305.73
2018-12-25T07:53:17.867Z,98304.79
2018-12-25T07:55:49.208Z,98309.87
2018-12-25T07:58:20.627Z,98314.71
2018-12-25T08:00:52.688Z,98318.13
2018-12-25T08:03:24.314Z,98314.47
2018-12-25T08:05:55.589Z,98304.30
2018-12-25T08:08:26.553Z,98302.66
2018-12-25T08:10:57.789Z,98304.08
2018-12-25T08:13:28.737Z,98302.52
2018-12-25T08:16:00.754Z,98303.24
2018-12-25T08:18:31.700Z,98302.18
2018-12-25T08:21:02.962Z,98305.73
2018-12-25T08:23:34.211Z,98309.16
2018-12-25T08:26:05.581Z,98316.12
2018-12-25T08:28:36.625Z,98317.88
2018-12-25T08:31:08.326Z,98321.44
2018-12-25T08:33:39.618Z,98314.36
2018-12-25T08:36:10.644Z,98319.21
2018-12-25T08:38:42.201Z,98319.55
2018-12-25T08:41:13.451Z,98320.51
2018-12-25T08:43:45.278Z,98323.23
2018-12-25T08:46:16.264Z,98311.52
2018-12-25T08:48:47.900Z,98312.22
2018-12-25T08:51:18.874Z,98317.30
2018-12-25T08:53:50.087Z,98307.59
2018-12-25T08:56:21.301Z,98312.80
2018-12-25T08:58:52.576Z,98316.47
2018-12-25T09:01:23.617Z,98322.05
2018-12-25T09:03:54.863Z,98336.34
2018-12-25T09:06:25.835Z,98336.80
2018-12-25T09:08:58.779Z,98342.35
2018-12-25T09:11:29.934Z,98336.69
2018-12-25T09:14:01.271Z,98334.55
2018-12-25T09:16:32.632Z,98331.14
2018-12-25T09:19:04.043Z,98323.80
2018-12-25T09:21:35.021Z,98319.67
2018-12-25T09:24:06.061Z,98328.55
2018-12-25T09:26:37.237Z,98331.61
2018-12-25T09:29:08.202Z,98330.08
2018-12-25T09:31:39.562Z,98335.02
2018-12-25T09:34:10.529Z,98339.41
2018-12-25T09:36:41.740Z,98342.34
2018-12-25T09:39:12.952Z,98346.98
2018-12-25T09:41:44.171Z,98356.53
2018-12-25T09:44:15.619Z,98368.58
2018-12-25T09:46:47.177Z,98370.14
2018-12-25T09:49:18.292Z,98376.27
2018-12-25T09:51:54.544Z,98371.88
2018-12-25T09:54:22.051Z,98366.22
2018-12-25T09:56:53.061Z,98372.50
2018-12-25T09:59:24.277Z,98373.55
2018-12-25T10:01:55.680Z,98363.87
2018-12-25T10:04:26.697Z,98361.39
2018-12-25T10:06:58.338Z,98368.84
2018-12-25T10:09:29.620Z,98365.75
2018-12-25T10:12:00.634Z,98361.63
2018-12-25T10:14:32.069Z,98355.34
2018-12-25T10:17:03.446Z,98358.07
2018-12-25T10:19:34.405Z,98352.41
2018-12-25T10:22:05.396Z,98357.00
2018-12-25T10:24:36.401Z,98366.22
2018-12-25T10:27:07.373Z,98381.36
2018-12-25T10:29:39.607Z,98383.50
2018-12-25T10:32:10.584Z,98377.81
2018-12-25T10:34:41.658Z,98380.64
2018-12-25T10:37:12.955Z,98382.67
2018-12-25T10:39:43.906Z,98372.95
2018-12-25T10:42:14.927Z,98378.39
2018-12-25T10:44:45.877Z,98381.59
2018-12-25T10:47:16.888Z,98378.16
2018-12-25T10:49:47.842Z,98377.23
2018-12-25T10:52:18.838Z,98374.98
2018-12-25T10:54:49.796Z,98383.23
2018-12-25T10:57:21.043Z,98373.67
2018-12-25T10:59:53.002Z,98369.39
2018-12-25T11:02:24.146Z,98373.06
2018-12-25T11:04:55.412Z,98372.61
2018-12-25T11:07:26.397Z,98375.33
2018-12-25T11:09:59.102Z,98371.30
2018-12-25T11:12:31.439Z,98363.84
2018-12-25T11:15:02.404Z,98356.38
2018-12-25T11:17:34.087Z,98346.69
2018-12-25T11:20:11.406Z,98333.67
2018-12-25T11:22:38.662Z,98326.20
2018-12-25T11:25:09.668Z,98323.96
2018-12-25T11:27:41.585Z,98327.02
2018-12-25T11:30:12.833Z,98322.41
2018-12-25T11:32:44.125Z,98323.48
2018-12-25T11:35:15.130Z,98315.78
2018-12-25T11:37:46.130Z,98321.02
2018-12-25T11:40:17.515Z,98313.99
2018-12-25T11:42:49.553Z,98313.52
2018-12-25T11:45:21.069Z,98313.98
2018-12-25T11:47:52.446Z,98304.30
2018-12-25T11:50:24.073Z,98296.95
2018-12-25T11:52:55.054Z,98303.48
2018-12-25T11:55:26.616Z,98291.67
2018-12-25T11:57:57.912Z,98285.98
2018-12-25T12:00:29.891Z,98276.14
2018-12-25T12:03:00.948Z,98266.23
2018-12-25T12:05:32.083Z,98269.31
2018-12-25T12:08:03.312Z,98286.30
2018-12-25T12:10:34.269Z,98291.88
2018-12-25T12:13:05.814Z,98283.75
2018-12-25T12:15:37.503Z,98290.38
2018-12-25T12:18:08.439Z,98292.71
2018-12-25T12:20:39.874Z,98291.20
2018-12-25T12:23:11.578Z,98294.47
2018-12-25T12:25:42.866Z,98292.23
2018-12-25T12:28:13.918Z,98288.88
2018-12-25T12:30:45.432Z,98289.66
2018-12-25T12:33:16.423Z,98288.68
2018-12-25T12:35:47.435Z,98287.88
2018-12-25T12:38:18.664Z,98287.73
2018-12-25T12:40:49.940Z,98285.94
2018-12-25T12:43:21.524Z,98294.04
2018-12-25T12:45:52.825Z,98297.89
2018-12-25T12:48:24.444Z,98300.83
2018-12-25T12:50:55.415Z,98297.59
2018-12-25T12:53:26.734Z,98305.02
2018-12-25T12:55:57.706Z,98304.66
2018-12-25T12:58:29.575Z,98302.64
2018-12-25T13:01:00.619Z,98308.26
2018-12-25T13:03:31.684Z,98309.77
2018-12-25T13:06:02.703Z,98305.76
2018-12-25T13:08:33.683Z,98299.79
2018-12-25T13:11:05.434Z,98301.44
2018-12-25T13:13:36.408Z,98298.73
2018-12-25T13:16:07.505Z,98302.54
2018-12-25T13:18:39.116Z,98306.55
2018-12-25T13:21:10.674Z,98307.28
2018-12-25T13:23:41.659Z,98311.70
2018-12-25T13:26:12.627Z,98315.73
2018-12-25T13:28:43.645Z,98322.03
2018-12-25T13:31:14.613Z,98313.39
2018-12-25T13:33:45.894Z,98323.39
2018-12-25T13:36:16.946Z,98335.80
2018-12-25T13:38:47.943Z,98334.09
2018-12-25T13:41:18.901Z,98327.80
2018-12-25T13:43:49.930Z,98339.22
2018-12-25T13:46:21.191Z,98331.00
2018-12-25T13:48:52.168Z,98329.48
2018-12-25T13:51:23.119Z,98330.77
2018-12-25T13:53:54.112Z,98339.86
2018-12-25T13:56:25.164Z,98333.25
2018-12-25T13:58:56.482Z,98330.73
2018-12-25T14:01:27.744Z,98324.69
2018-12-25T14:04:00.288Z,98329.30
2018-12-25T14:06:31.345Z,98322.89
2018-12-25T14:09:02.429Z,98331.38
2018-12-25T14:11:33.714Z,98334.95
2018-12-25T14:14:04.731Z,98328.39
2018-12-25T14:16:35.724Z,98325.59
2018-12-25T14:19:06.987Z,98329.14
2018-12-25T14:21:38.028Z,98337.23
2018-12-25T14:24:09.035Z,98337.55
2018-12-25T14:26:40.231Z,98351.12
2018-12-25T14:29:11.234Z,98346.13
2018-12-25T14:31:42.182Z,98349.95
2018-12-25T14:34:13.433Z,98349.88
2018-12-25T14:36:44.628Z,98357.30
2018-12-25T14:39:15.624Z,98362.06
2018-12-25T14:41:47.422Z,98362.20
2018-12-25T14:44:18.416Z,98357.58
2018-12-25T14:46:49.371Z,98353.07
2018-12-25T14:49:21.006Z,98352.02
2018-12-25T14:51:52.208Z,98348.72
2018-12-25T14:54:23.502Z,98353.95
2018-12-25T14:56:54.661Z,98360.63
2018-12-25T14:59:25.726Z,98362.20
2018-12-25T15:01:56.707Z,98363.84
2018-12-25T15:04:27.976Z,98370.12
2018-12-25T15:06:59.247Z,98361.98
2018-12-25T15:09:31.492Z,98362.33
2018-12-25T15:12:02.735Z,98367.98
2018-12-25T15:14:33.868Z,98364.56
2018-12-25T15:17:05.199Z,98367.16
2018-12-25T15:19:36.328Z,98369.37
2018-12-25T15:22:07.594Z,98367.96
2018-12-25T15:24:38.895Z,98380.11
2018-12-25T15:27:09.935Z,98372.60
2018-12-25T15:29:41.080Z,98370.87
2018-12-25T15:32:13.035Z,98382.94
2018-12-25T15:34:44.091Z,98379.89
2018-12-25T15:37:15.401Z,98369.78
2018-12-25T15:39:46.700Z,98368.86
2018-12-25T15:42:17.652Z,98369.25
2018-12-25T15:44:49.042Z,98361.89
2018-12-25T15:47:19.990Z,98371.10
2018-12-25T15:49:51.347Z,98366.64
2018-12-25T15:52:22.774Z,98367.88
2018-12-25T15:54:54.260Z,98368.83
2018-12-25T15:57:25.281Z,98374.44
2018-12-25T15:59:56.641Z,98381.55
2018-12-25T16:02:27.781Z,98385.45
2018-12-25T16:04:59.516Z,98383.18
2018-12-25T16:07:30.609Z,98386.15
2018-12-25T16:10:02.127Z,98379.66
2018-12-25T16:12:33.465Z,98378.81
2018-12-25T16:15:06.173Z,98368.75
2018-12-25T16:17:37.692Z,98381.09
2018-12-25T16:20:11.616Z,98368.43
2018-12-25T16:22:42.965Z,98362.63
2018-12-25T16:25:14.030Z,98365.01
2018-12-25T16:27:45.346Z,98365.13
2018-12-25T16:30:16.401Z,98358.41
2018-12-25T16:32:47.442Z,98356.25
2018-12-25T16:35:18.641Z,98353.09
2018-12-25T16:37:51.042Z,98349.06
2018-12-25T16:40:22.226Z,98350.59
2018-12-25T16:42:53.219Z,98352.97
2018-12-25T16:45:24.473Z,98357.56
2018-12-25T16:47:55.718Z,98358.62
2018-12-25T16:50:26.796Z,98361.34
2018-12-25T16:52:57.789Z,98357.80
2018-12-25T16:55:29.149Z,98349.88
2018-12-25T16:58:00.103Z,98352.47
2018-12-25T17:00:32.249Z,98349.98
2018-12-25T17:03:03.518Z,98342.17
2018-12-25T17:05:35.472Z,98345.27
2018-12-25T17:08:07.934Z,98349.49
2018-12-25T17:10:39.152Z,98344.28
2018-12-25T17:13:10.893Z,98345.11
2018-12-25T17:15:41.967Z,98345.84
2018-12-25T17:18:13.325Z,98344.53
2018-12-25T17:20:44.399Z,98331.53
2018-12-25T17:23:15.437Z,98332.73
2018-12-25T17:25:46.416Z,98325.50
2018-12-25T17:28:17.362Z,98334.98
2018-12-25T17:30:48.355Z,98335.45
2018-12-25T17:33:19.816Z,98339.48
2018-12-25T17:35:50.858Z,98339.25
2018-12-25T17:38:22.050Z,98341.97
2018-12-25T17:40:53.423Z,98343.04
2018-12-25T17:43:24.386Z,98340.70
2018-12-25T17:45:55.447Z,98334.44
2018-12-25T17:48:26.468Z,98331.21
2018-12-25T17:50:57.796Z,98327.30
2018-12-25T17:53:29.249Z,98332.05
2018-12-25T17:56:00.313Z,98328.61
2018-12-25T17:58:31.256Z,98328.73
2018-12-25T18:01:02.527Z,98320.06
2018-12-25T18:03:33.818Z,98313.84
2018-12-25T18:06:05.143Z,98309.56
2018-12-25T18:08:36.313Z,98306.84
2018-12-25T18:11:07.555Z,98308.04
2018-12-25T18:13:38.510Z,98300.61
2018-12-25T18:16:09.553Z,98312.33
2018-12-25T18:18:41.124Z,98307.82
2018-12-25T18:21:13.570Z,98322.13
2018-12-25T18:23:44.519Z,98320.94
2018-12-25T18:26:15.575Z,98324.48
2018-12-25T18:28:46.528Z,98321.43
2018-12-25T18:31:17.832Z,98315.16
2018-12-25T18:33:49.288Z,98312.91
2018-12-25T18:36:20.828Z,98321.78
2018-12-25T18:38:51.777Z,98327.94
2018-12-25T18:41:22.756Z,98327.20
2018-12-25T18:43:54.706Z,98329.00
2018-12-25T18:46:25.767Z,98316.92
2018-12-25T18:48:57.117Z,98318.22
2018-12-25T18:51:28.652Z,98322.35
2018-12-25T18:53:59.842Z,98318.48
2018-12-25T18:56:30.848Z,98317.53
2018-12-25T18:59:02.063Z,98322.85
2018-12-25T19:01:33.138Z,98316.35
2018-12-25T19:04:04.126Z,98325.80
2018-12-25T19:06:35.787Z,98319.55
2018-12-25T19:09:08.618Z,98319.56
2018-12-25T19:11:41.136Z,98311.98
2018-12-25T19:14:12.403Z,98317.08
2018-12-25T19:16:43.652Z,98313.13
2018-12-25T19:19:14.988Z,98305.83
2018-12-25T19:21:47.464Z,98304.75
2018-12-25T19:24:19.838Z,98304.63
2018-12-25T19:26:50.851Z,98294.23
2018-12-25T19:29:22.177Z,98297.41
2018-12-25T19:31:53.436Z,98286.55
2018-12-25T19:34:24.798Z,98284.52
2018-12-25T19:36:56.021Z,98286.77
2018-12-25T19:39:27.336Z,98276.38
2018-12-25T19:41:58.578Z,98279.81
2018-12-25T19:44:30.217Z,98274.70
2018-12-25T19:47:01.168Z,98273.30
2018-12-25T19:49:32.837Z,98277.55
2018-12-25T19:52:04.134Z,98267.12
2018-12-25T19:54:35.372Z,98272.91
2018-12-25T19:57:07.664Z,98271.25
2018-12-25T19:59:39.158Z,98268.86
2018-12-25T20:02:10.470Z,98269.70
2018-12-25T20:05:55.076Z,98271.13
2018-12-25T20:09:08.785Z,98260.66
2018-12-25T20:13:03.905Z,98263.89
2018-12-25T20:16:19.654Z,98252.75
2018-12-25T20:19:47.563Z,98256.84
2018-12-25T20:23:35.131Z,98247.61
2018-12-25T20:27:14.037Z,98259.41
2018-12-25T20:30:30.344Z,98246.52
2018-12-25T20:33:24.091Z,98238.69
2018-12-25T20:37:16.046Z,98241.75
2018-12-25T20:40:50.367Z,98236.69
2018-12-25T20:44:28.805Z,98227.42
2018-12-25T20:48:05.506Z,98220.89
2018-12-25T20:51:36.619Z,98213.06
2018-12-25T20:55:23.269Z,98213.09
2018-12-25T20:58:51.440Z,98219.27
2018-12-25T21:02:19.062Z,98205.67
2018-12-25T21:05:29.438Z,98205.77
2018-12-25T21:08:47.851Z,98214.02
2018-12-25T21:12:09.942Z,98210.11
2018-12-25T21:15:31.489Z,98202.60
2018-12-25T21:19:06.511Z,98198.30
2018-12-25T21:22:08.844Z,98192.98
2018-12-25T21:25:34.348Z,98204.39
2018-12-25T21:28:03.405Z,98189.27
2018-12-25T21:30:34.604Z,98197.91
2018-12-25T21:33:05.965Z,98199.02
2018-12-25T21:35:37.094Z,98189.81
2018-12-25T21:38:09.194Z,98177.45
2018-12-25T21:40:41.882Z,98186.36
2018-12-25T21:43:12.996Z,98189.43
2018-12-25T21:45:44.363Z,98195.13
2018-12-25T21:48:15.729Z,98197.47
2018-12-25T21:50:47.265Z,98196.61
2018-12-25T21:53:18.395Z,98202.66
2018-12-25T21:55:50.681Z,98205.03
2018-12-25T21:58:22.812Z,98208.64
2018-12-25T22:00:54.171Z,98200.61
2018-12-25T22:03:25.453Z,98197.42
2018-12-25T22:05:56.702Z,98207.02
2018-12-25T22:08:29.575Z,98201.63
2018-12-25T22:11:00.627Z,98206.27
2018-12-25T22:13:31.895Z,98211.51
2018-12-25T22:16:03.172Z,98204.22
2018-12-25T22:18:34.129Z,98198.97
2018-12-25T22:21:05.496Z,98194.40
2018-12-25T22:23:36.844Z,98193.19
2018-12-25T22:26:08.104Z,98182.96
2018-12-25T22:28:39.661Z,98190.67
2018-12-25T22:31:10.858Z,98184.70
2018-12-25T22:33:42.351Z,98182.34
2018-12-25T22:36:13.862Z,98169.13
2018-12-25T22:38:45.261Z,98169.94
2018-12-25T22:41:16.352Z,98165.94
2018-12-25T22:43:48.076Z,98158.31
2018-12-25T22:46:19.121Z,98158.94
2018-12-25T22:48:50.417Z,98163.39
2018-12-25T22:51:22.367Z,98168.91
2018-12-25T22:53:53.646Z,98168.72
2018-12-25T22:56:25.191Z,98171.07
2018-12-25T22:58:56.358Z,98161.09
2018-12-25T23:01:27.478Z,98159.14
2018-12-25T23:03:58.443Z,98159.14
2018-12-25T23:06:29.665Z,98158.22
2018-12-25T23:09:00.912Z,98153.81
2018-12-25T23:11:32.229Z,98151.87
2018-12-25T23:14:03.514Z,98156.63
2018-12-25T23:16:34.478Z,98156.94
2018-12-25T23:19:05.604Z,98156.17
2018-12-25T23:21:36.571Z,98154.75
2018-12-25T23:24:07.770Z,98150.94
2018-12-25T23:26:38.757Z,98154.63
2018-12-25T23:29:09.803Z,98151.21
2018-12-25T23:31:41.933Z,98147.78
2018-12-25T23:34:13.169Z,98148.58
2018-12-25T23:36:44.389Z,98148.70
2018-12-25T23:39:15.507Z,98138.41
2018-12-25T23:41:46.505Z,98145.33
2018-12-25T23:44:17.735Z,98147.98
2018-12-25T23:46:48.696Z,98151.73
2018-12-25T23:49:19.758Z,98154.58
2018-12-25T23:51:50.722Z,98155.69
2018-12-25T23:54:21.692Z,98160.97
2018-12-25T23:56:52.659Z,98162.20
2018-12-25T23:59:23.620Z,98166.53
